Meteo Giornale » Osservazioni meteo Peru » Cuzco
ore: 05:00 - Osservazioni Meteo Cuzco
Lat. 13° 33' S Lon. 71° 59' W Alt. 3248 metri s.l.m.
7 °C
Sereno
Temp. 24 Ore
7 °C
26 °C
Nord
3.7 Km/h
Dew point 4 °C
Umidità 81 %
Visibilità 10 Km
Il sole sorge alle ore 05:52
Il sole tramonta alle ore 17:43
| Data e Ora | Cielo e Fenomeni | T °C | DP °C | Um. % | Pres. hPa | Vis. km | Vento km/h | |
|---|---|---|---|---|---|---|---|---|
| Oggi h: 05:00 | Sereno | 7 | 4 | 81 | 1032 | 10 | N 3.7 | |
| Oggi h: 04:30 | Sereno | 7 | 4 | 81 | 1032 | 10 | N 1.8 | |
| Oggi h: 04:00 | Sereno | 7 | 5 | 87 | 1032 | 10 | N 1.8 | |
| Oggi h: 03:00 | Sereno | 7 | 5 | 87 | 1032 | 10 | N 3.7 | |
| Oggi h: 02:00 | Sereno | 9 | 5 | 75 | 1032 | 10 | N 3.7 | |
| Oggi h: 01:30 | Sereno | 9 | 5 | 75 | 1032 | 10 | N 5.5 | |
| Oggi h: 01:00 | Sereno | 9 | 6 | 81 | 1032 | 10 | E 11.1 | |
| Oggi h: 00:30 | Sereno | 10 | 6 | 76 | 1032 | 10 | N 5.5 | |
| Oggi h: 00:00 | Poco Nuvoloso | 11 | 6 | 71 | 1033 | 10 | N 5.5 | |
| Ieri h: 23:30 | Nuvoloso | 11 | 6 | 71 | 1033 | 10 | N 5.5 | |
| Ieri h: 23:00 | Nuvoloso | 11 | 6 | 71 | 1033 | 10 | O/NO 7.4 | |
| Ieri h: 22:30 | Sereno | 11 | 6 | 71 | 1033 | 10 | N 5.5 | |
| Ieri h: 22:00 | Sereno | 10 | 5 | 71 | 1033 | 10 | N 5.5 | |
| Ieri h: 21:30 | Sereno | 11 | 6 | 71 | 1032 | 10 | N 1.8 | |
| Ieri h: 21:00 | Sereno | 13 | 7 | 66 | 1032 | 10 | N 5.5 | |
| Ieri h: 20:30 | Sereno | 14 | 7 | 62 | 1032 | 10 | E/SE 7.4 | |
| Ieri h: 20:00 | Sereno | 15 | 7 | 58 | 1031 | 10 | SE 11.1 | |
| Ieri h: 19:30 | Sereno | 15 | 7 | 58 | 1030 | 10 | E 14.8 | |
| Ieri h: 19:00 | Sereno | 15 | 7 | 58 | 1030 | 10 | E 11.1 | |
| Ieri h: 18:30 | Sereno | 16 | 7 | 55 | 1029 | 10 | E 11.1 | |
| Ieri h: 18:00 | Sereno | 18 | 7 | 48 | 1028 | 10 | N 5.5 | |
| Ieri h: 17:30 | Sereno | 19 | 6 | 42 | 1028 | 10 | N/NE 13 | |
| Ieri h: 17:00 | Sereno | 21 | 6 | 37 | 1027 | 10 | N 20.3 | |
| Ieri h: 16:30 | Sereno | 24 | 3 | 25 | 1027 | 10 | N 16.7 | |
| Ieri h: 16:00 | Sereno | 26 | -3 | 14 | 1026 | 10 | N 7.4 | |
| Ieri h: 15:30 | Sereno | 26 | -4 | 13 | 1027 | 10 | N 13 | |
| Ieri h: 15:00 | Sereno | 25 | -3 | 15 | 1027 | 10 | N 11.1 | |
| Ieri h: 14:30 | Sereno | 25 | 0 | 19 | 1027 | 10 | NO 18.5 | |
| Ieri h: 14:00 | Sereno | 25 | 0 | 19 | 1028 | 10 | O/NO 11.1 | |
| Ieri h: 13:30 | Sereno | 24 | -1 | 19 | 1029 | 10 | N 9.3 | |
| Ieri h: 13:00 | Sereno | 24 | -1 | 19 | 1030 | 10 | N 11.1 | |
| Ieri h: 12:30 | Sereno | 23 | -2 | 18 | 1030 | 10 | N 5.5 | |
| Ieri h: 12:00 | Sereno | 23 | -1 | 20 | 1031 | 10 | N 9.3 | |
| Ieri h: 11:30 | Sereno | 21 | 0 | 24 | 1032 | 10 | N 9.3 | |
| Ieri h: 11:00 | Sereno | 21 | 0 | 24 | 1033 | 10 | N 11.1 | |
| Ieri h: 10:30 | Sereno | 20 | 3 | 32 | 1033 | 10 | O/NO 11.1 | |
| Ieri h: 10:00 | Sereno | 18 | 4 | 39 | 1034 | 10 | E 9.3 | |
| Ieri h: 09:30 | Sereno | 17 | 5 | 45 | 1034 | 10 | N 5.5 | |
| Ieri h: 09:00 | Poco Nuvoloso | 16 | 5 | 47 | 1035 | 10 | E/NE 9.3 | |
| Ieri h: 08:30 | Nuvoloso | 16 | 6 | 51 | 1034 | 10 | N 3.7 | |
| Ieri h: 08:00 | Nuvoloso | 13 | 6 | 62 | 1034 | 10 | N 5.5 | |
| Ieri h: 07:30 | Nuvoloso | 11 | 5 | 66 | 1034 | 10 | N 5.5 | |
| Ieri h: 07:00 | Molto Nuvoloso | 9 | 6 | 81 | 1034 | 10 | N 5.5 | |



